Cunit, Spain
Current Conditions -  °F | °C
As of 1:00 PM on Saturday 25 Oct 2014 (Local Time) from LEBL Reporting Station
Clear Clear  
Wind Chill: 73°   Ceiling: Unl
Heat Index: 73°   Visibility: 6mi
Dew Point: 59°   Wind: 6mph
Humidity: 61%   Direction: 230°SW
Pressure: 30.09"   Gusts: NA
Location:  41.2°N, 1.64°E
Report Text: LEBL 251100Z 23005KT 200V300 CAVOK 23/15 Q1019 NOSIG
Loading
Personal Weather Stations






























Interactive Weather Map
Tropical Storm Tracking
New forecast layout! Learn more

10-Day Weather Forecast

Advertisements
Track Severe Weather on mobile